createdAt,value
2022-08-14T00:00:22.177Z,99973.09
2022-08-14T00:01:10.173Z,99976.69
2022-08-14T00:01:55.629Z,99977.16
2022-08-14T00:02:38.026Z,99980.06
2022-08-14T00:03:34.143Z,99969.50
2022-08-14T00:04:32.101Z,99971.47
2022-08-14T00:05:20.000Z,99978.41
2022-08-14T00:05:58.247Z,99964.06
2022-08-14T00:06:47.169Z,99952.59
2022-08-14T00:07:21.009Z,99972.03
2022-08-14T00:08:14.345Z,99968.25
2022-08-14T00:08:49.199Z,99970.00
2022-08-14T00:09:56.009Z,99978.16
2022-08-14T00:10:51.252Z,99976.47
2022-08-14T00:11:46.955Z,99962.75
2022-08-14T00:12:40.952Z,99972.53
2022-08-14T00:13:37.917Z,99978.44
2022-08-14T00:14:31.989Z,99970.66
2022-08-14T00:15:43.501Z,99961.78
2022-08-14T00:16:41.352Z,99968.97
2022-08-14T00:17:48.406Z,99943.38
2022-08-14T00:19:06.112Z,99947.59
2022-08-14T00:20:01.940Z,99968.97
2022-08-14T00:20:56.993Z,99947.00
2022-08-14T00:21:51.053Z,99950.88
2022-08-14T00:22:56.895Z,99951.13
2022-08-14T00:23:53.853Z,99931.00
2022-08-14T00:24:47.929Z,99957.44
2022-08-14T00:25:43.001Z,99954.81
2022-08-14T00:26:23.345Z,99957.00
2022-08-14T00:27:04.996Z,99952.72
2022-08-14T00:27:44.952Z,99942.97
2022-08-14T00:28:32.735Z,99956.53
2022-08-14T00:29:16.921Z,99952.28
2022-08-14T00:29:56.995Z,99954.19
2022-08-14T00:30:37.934Z,99956.53
2022-08-14T00:31:35.331Z,99954.47
2022-08-14T00:32:50.533Z,99959.34
2022-08-14T00:33:53.045Z,99954.50
2022-08-14T00:34:52.926Z,99960.00
2022-08-14T00:36:36.075Z,99947.75
2022-08-14T00:36:50.010Z,99937.72
2022-08-14T00:37:30.014Z,99936.69
2022-08-14T00:38:12.918Z,99941.97
2022-08-14T00:38:53.998Z,99946.34
2022-08-14T00:39:33.985Z,99941.88
2022-08-14T00:40:27.540Z,99940.63
2022-08-14T00:41:14.916Z,99943.41
2022-08-14T00:42:02.247Z,99938.75
2022-08-14T00:42:57.935Z,99929.34
2022-08-14T00:43:51.898Z,99941.25
2022-08-14T00:44:45.933Z,99936.56
2022-08-14T00:45:39.994Z,99933.16
2022-08-14T00:46:34.918Z,99930.00
2022-08-14T00:47:24.955Z,99938.84
2022-08-14T00:48:01.001Z,99929.28
2022-08-14T00:48:49.208Z,99922.13
2022-08-14T00:49:22.982Z,99944.13
2022-08-14T00:50:16.745Z,99923.22
2022-08-14T00:50:55.045Z,99934.44
2022-08-14T00:51:44.909Z,99927.50
2022-08-14T00:52:22.677Z,99939.56
2022-08-14T00:53:10.663Z,99931.47
2022-08-14T00:53:51.014Z,99947.88
2022-08-14T00:54:33.926Z,99937.94
2022-08-14T00:55:16.869Z,99938.19
2022-08-14T00:56:01.902Z,99925.47
2022-08-14T00:56:49.103Z,99935.25
2022-08-14T00:57:36.914Z,99928.06
2022-08-14T00:58:44.931Z,99934.00
2022-08-14T00:59:41.886Z,99934.28
2022-08-14T01:00:42.886Z,99902.56
2022-08-14T01:01:43.055Z,99909.94
2022-08-14T01:02:37.958Z,99926.69
2022-08-14T01:03:35.885Z,99927.44
2022-08-14T01:04:51.966Z,99918.31
2022-08-14T01:05:25.096Z,99927.63
2022-08-14T01:06:08.873Z,99911.75
2022-08-14T01:06:50.768Z,99928.41
2022-08-14T01:07:47.263Z,99924.22
2022-08-14T01:08:51.979Z,99919.13
2022-08-14T01:09:36.928Z,99913.91
2022-08-14T01:10:17.847Z,99931.91
2022-08-14T01:10:58.892Z,99922.75
2022-08-14T01:11:38.991Z,99923.41
2022-08-14T01:12:29.936Z,99927.22
2022-08-14T01:13:11.020Z,99923.41
2022-08-14T01:13:55.992Z,99925.75
2022-08-14T01:14:49.018Z,99925.75
2022-08-14T01:15:57.701Z,99926.41
2022-08-14T01:16:55.668Z,99913.25
2022-08-14T01:18:07.894Z,99914.78
2022-08-14T01:19:20.910Z,99923.81
2022-08-14T01:20:39.388Z,99916.88
2022-08-14T01:21:17.096Z,99912.22
2022-08-14T01:22:03.877Z,99933.47
2022-08-14T01:22:38.949Z,99930.97
2022-08-14T01:23:46.482Z,99928.88
2022-08-14T01:24:24.674Z,99930.34
2022-08-14T01:25:17.878Z,99917.91
2022-08-14T01:26:01.918Z,99925.91
2022-08-14T01:27:00.145Z,99923.41
2022-08-14T01:27:57.735Z,99917.75
2022-08-14T01:28:56.736Z,99923.41
2022-08-14T01:30:03.081Z,99907.53
2022-08-14T01:31:02.016Z,99920.00
2022-08-14T01:31:55.871Z,99919.16
2022-08-14T01:32:51.487Z,99925.75
2022-08-14T01:35:16.407Z,99917.50
2022-08-14T01:35:17.356Z,99924.06
2022-08-14T01:36:28.911Z,99916.44
2022-08-14T01:37:23.861Z,99913.72
2022-08-14T01:38:21.860Z,99913.56
2022-08-14T01:39:32.273Z,99915.00
2022-08-14T01:40:36.567Z,99919.06
2022-08-14T01:41:36.937Z,99910.22
2022-08-14T01:42:36.339Z,99909.38
2022-08-14T01:43:36.889Z,99917.66
2022-08-14T01:44:34.534Z,99911.94
2022-08-14T01:45:28.914Z,99909.19
2022-08-14T01:46:33.340Z,99910.28
2022-08-14T01:47:21.706Z,99903.47
2022-08-14T01:48:15.905Z,99902.84
2022-08-14T01:49:16.865Z,99905.97
2022-08-14T01:50:11.865Z,99915.84
2022-08-14T01:51:19.260Z,99905.31
2022-08-14T01:52:34.332Z,99912.69
2022-08-14T01:53:16.901Z,99901.47
2022-08-14T01:54:09.974Z,99910.34
2022-08-14T01:54:58.144Z,99909.72
2022-08-14T01:55:40.428Z,99906.13
2022-08-14T01:56:24.885Z,99897.63
2022-08-14T01:57:13.319Z,99913.91
2022-08-14T01:58:01.483Z,99896.31
2022-08-14T01:58:57.994Z,99907.78
2022-08-14T01:59:38.575Z,99901.88
2022-08-14T02:00:27.959Z,99895.50
2022-08-14T02:01:05.917Z,99903.50
2022-08-14T02:01:59.880Z,99901.34
2022-08-14T02:02:36.647Z,99908.13
2022-08-14T02:03:23.855Z,99897.72
2022-08-14T02:04:04.890Z,99894.53
2022-08-14T02:05:15.876Z,99908.13
2022-08-14T02:06:33.248Z,99911.50
2022-08-14T02:07:27.302Z,99908.59
2022-08-14T02:08:53.179Z,99909.22
2022-08-14T02:09:39.857Z,99889.97
2022-08-14T02:10:26.022Z,99901.38
2022-08-14T02:11:29.112Z,99894.00
2022-08-14T02:12:19.416Z,99906.31
2022-08-14T02:13:00.840Z,99902.09
2022-08-14T02:13:43.899Z,99903.97
2022-08-14T02:14:31.418Z,99903.97
2022-08-14T02:15:15.944Z,99905.28
2022-08-14T02:15:51.364Z,99900.56
2022-08-14T02:16:46.053Z,99885.75
2022-08-14T02:17:23.655Z,99882.38
2022-08-14T02:18:11.648Z,99890.22
2022-08-14T02:18:46.187Z,99885.75
2022-08-14T02:19:36.876Z,99892.97
2022-08-14T02:20:13.932Z,99896.16
2022-08-14T02:20:55.877Z,99890.66
2022-08-14T02:21:46.848Z,99899.56
2022-08-14T02:22:33.383Z,99904.47
2022-08-14T02:23:14.933Z,99898.56
2022-08-14T02:23:58.817Z,99887.56
2022-08-14T02:24:45.178Z,99888.66
2022-08-14T02:25:30.075Z,99893.91
2022-08-14T02:26:29.149Z,99897.06
2022-08-14T02:28:23.645Z,99892.59
2022-08-14T02:28:25.730Z,99876.59
2022-08-14T02:29:17.706Z,99893.03
2022-08-14T02:30:04.804Z,99900.22
2022-08-14T02:30:46.092Z,99885.66
2022-08-14T02:31:36.208Z,99881.59
2022-08-14T02:32:30.296Z,99879.06
2022-08-14T02:33:10.679Z,99880.41
2022-08-14T02:33:45.269Z,99885.66
2022-08-14T02:34:30.814Z,99883.72
2022-08-14T02:35:16.737Z,99888.81
2022-08-14T02:36:05.127Z,99882.47
2022-08-14T02:37:03.924Z,99884.38
2022-08-14T02:37:47.141Z,99886.25
2022-08-14T02:38:30.191Z,99885.84
2022-08-14T02:39:16.875Z,99880.78
2022-08-14T02:39:54.937Z,99885.84
2022-08-14T02:40:33.997Z,99878.88
2022-08-14T02:41:19.804Z,99868.97
2022-08-14T02:41:58.145Z,99886.13
2022-08-14T02:42:38.841Z,99879.97
2022-08-14T02:43:22.687Z,99883.34
2022-08-14T02:44:02.817Z,99882.53
2022-08-14T02:44:43.293Z,99876.97
2022-08-14T02:45:33.503Z,99874.41
2022-08-14T02:46:20.600Z,99873.56
2022-08-14T02:47:07.185Z,99863.63
2022-08-14T02:48:01.844Z,99876.56
2022-08-14T02:49:04.727Z,99874.88
2022-08-14T02:49:50.475Z,99862.16
2022-08-14T02:50:29.588Z,99860.09
2022-08-14T02:51:30.438Z,99874.69
2022-08-14T02:52:56.385Z,99865.53
2022-08-14T02:53:14.954Z,99866.19
2022-08-14T02:53:48.852Z,99874.06
2022-08-14T02:54:40.788Z,99865.97
2022-08-14T02:55:34.796Z,99852.94
2022-08-14T02:57:16.680Z,99864.75
2022-08-14T02:57:46.820Z,99859.00
2022-08-14T02:58:44.848Z,99863.44
2022-08-14T02:59:33.872Z,99858.00
2022-08-14T03:00:18.732Z,99859.88
2022-08-14T03:01:01.288Z,99858.41
2022-08-14T03:01:50.848Z,99841.69
2022-08-14T03:02:56.258Z,99864.28
2022-08-14T03:03:38.859Z,99845.47
2022-08-14T03:04:20.704Z,99862.28
2022-08-14T03:04:55.683Z,99854.19
2022-08-14T03:05:43.799Z,99863.50
2022-08-14T03:06:48.932Z,99866.94
2022-08-14T03:07:27.786Z,99864.41
2022-08-14T03:08:19.094Z,99869.44
2022-08-14T03:09:07.781Z,99856.34
2022-08-14T03:10:27.539Z,99865.50
2022-08-14T03:11:07.764Z,99847.50
2022-08-14T03:12:01.801Z,99869.25
2022-08-14T03:12:58.793Z,99867.78
2022-08-14T03:13:59.557Z,99862.28
2022-08-14T03:14:56.818Z,99864.59
2022-08-14T03:15:55.785Z,99861.44
2022-08-14T03:16:55.793Z,99848.34
2022-08-14T03:17:58.373Z,99839.66
2022-08-14T03:18:52.799Z,99856.00
2022-08-14T03:19:46.795Z,99845.47
2022-08-14T03:20:34.885Z,99848.44
2022-08-14T03:21:19.675Z,99844.66
2022-08-14T03:22:00.770Z,99843.81
2022-08-14T03:22:42.000Z,99848.50
2022-08-14T03:23:22.793Z,99847.44
2022-08-14T03:24:21.432Z,99833.06
2022-08-14T03:25:03.804Z,99844.31
2022-08-14T03:25:54.810Z,99846.84
2022-08-14T03:26:57.342Z,99844.72
2022-08-14T03:27:58.266Z,99843.66
2022-08-14T03:28:54.775Z,99843.47
2022-08-14T03:29:48.791Z,99833.97
2022-08-14T03:30:44.781Z,99846.69
2022-08-14T03:31:29.304Z,99834.19
2022-08-14T03:32:11.000Z,99847.06
2022-08-14T03:32:51.476Z,99844.78
2022-08-14T03:33:37.677Z,99836.31
2022-08-14T03:34:24.759Z,99835.03
2022-08-14T03:35:19.931Z,99822.38
2022-08-14T03:37:28.778Z,99846.47
2022-08-14T03:37:29.703Z,99841.59
2022-08-14T03:39:12.303Z,99835.03
2022-08-14T03:39:15.117Z,99831.88
2022-08-14T03:39:55.863Z,99835.25
2022-08-14T03:40:44.758Z,99839.69
2022-08-14T03:41:26.869Z,99846.03
2022-08-14T03:42:19.605Z,99834.19
2022-08-14T03:42:53.857Z,99846.03
2022-08-14T03:43:40.769Z,99839.28
2022-08-14T03:45:25.973Z,99834.81
2022-08-14T03:45:33.398Z,99839.47
2022-08-14T03:46:39.101Z,99839.91
2022-08-14T03:47:19.796Z,99823.19
2022-08-14T03:47:58.513Z,99830.81
2022-08-14T03:48:49.750Z,99843.06
2022-08-14T03:49:29.956Z,99839.66
2022-08-14T03:50:27.613Z,99842.03
2022-08-14T03:51:04.888Z,99852.16
2022-08-14T03:51:55.753Z,99841.34
2022-08-14T03:52:40.685Z,99833.34
2022-08-14T03:53:34.750Z,99838.44
2022-08-14T03:54:28.779Z,99835.69
2022-08-14T03:55:24.743Z,99842.22
2022-08-14T03:56:21.362Z,99842.66
2022-08-14T03:57:16.754Z,99844.34
2022-08-14T03:58:04.779Z,99843.09
2022-08-14T03:58:42.056Z,99844.53
2022-08-14T03:59:28.838Z,99839.50
2022-08-14T04:00:04.593Z,99845.63
2022-08-14T04:00:52.785Z,99831.22
2022-08-14T04:01:29.503Z,99831.25
2022-08-14T04:02:37.014Z,99847.53
2022-08-14T04:03:24.394Z,99848.81
2022-08-14T04:04:19.743Z,99841.41
2022-08-14T04:05:16.647Z,99849.44
2022-08-14T04:06:10.745Z,99845.22
2022-08-14T04:07:05.774Z,99836.53
2022-08-14T04:08:08.496Z,99855.34
2022-08-14T04:08:59.784Z,99849.44
2022-08-14T04:09:39.821Z,99847.53
2022-08-14T04:10:26.253Z,99850.72
2022-08-14T04:11:15.318Z,99846.47
2022-08-14T04:11:56.291Z,99831.66
2022-08-14T04:12:38.846Z,99836.53
2022-08-14T04:13:24.746Z,99839.69
2022-08-14T04:14:17.763Z,99842.66
2022-08-14T04:15:13.747Z,99843.72
2022-08-14T04:16:13.747Z,99845.00
2022-08-14T04:17:09.946Z,99832.94
2022-08-14T04:18:03.750Z,99845.63
2022-08-14T04:19:02.928Z,99848.16
2022-08-14T04:19:43.777Z,99846.91
2022-08-14T04:20:25.595Z,99855.75
2022-08-14T04:21:07.727Z,99855.31
2022-08-14T04:22:02.666Z,99858.28
2022-08-14T04:22:44.922Z,99857.44
2022-08-14T04:23:29.709Z,99855.75
2022-08-14T04:24:13.742Z,99848.59
2022-08-14T04:25:04.836Z,99847.75
2022-08-14T04:26:01.740Z,99851.94
2022-08-14T04:26:55.747Z,99849.22
2022-08-14T04:28:02.107Z,99853.66
2022-08-14T04:29:05.273Z,99843.94
2022-08-14T04:30:08.756Z,99855.75
2022-08-14T04:31:18.717Z,99855.34
2022-08-14T04:32:58.521Z,99856.19
2022-08-14T04:33:47.873Z,99856.19
2022-08-14T04:34:52.161Z,99848.59
2022-08-14T04:35:56.029Z,99865.91
2022-08-14T04:36:53.758Z,99873.94
2022-08-14T04:37:53.710Z,99850.88
2022-08-14T04:38:52.680Z,99855.75
2022-08-14T04:39:56.907Z,99860.00
2022-08-14T04:41:03.759Z,99860.84
2022-08-14T04:42:17.738Z,99851.75
2022-08-14T04:43:39.122Z,99862.13
2022-08-14T04:44:36.592Z,99859.78
2022-08-14T04:45:30.721Z,99859.78
2022-08-14T04:46:56.697Z,99850.72
2022-08-14T04:47:35.499Z,99861.25
2022-08-14T04:48:38.760Z,99861.69
2022-08-14T04:49:16.796Z,99850.25
2022-08-14T04:50:04.725Z,99849.88
2022-08-14T04:50:44.499Z,99852.38
2022-08-14T04:51:47.003Z,99858.31
2022-08-14T04:52:28.803Z,99844.78
2022-08-14T04:53:23.021Z,99850.72
2022-08-14T04:53:57.780Z,99854.69
2022-08-14T04:54:45.728Z,99845.41
2022-08-14T04:55:20.492Z,99860.00
2022-08-14T04:56:20.619Z,99851.09
2022-08-14T04:57:10.745Z,99851.72
2022-08-14T04:58:04.708Z,99855.31
2022-08-14T04:59:04.706Z,99855.31
2022-08-14T05:00:03.697Z,99861.25
2022-08-14T05:01:02.724Z,99847.72
2022-08-14T05:01:57.375Z,99865.91
2022-08-14T05:02:40.892Z,99858.28
2022-08-14T05:03:25.281Z,99857.88
2022-08-14T05:04:05.700Z,99849.19
2022-08-14T05:04:57.162Z,99846.22
2022-08-14T05:05:39.706Z,99857.22
2022-08-14T05:06:37.705Z,99845.59
2022-08-14T05:07:46.394Z,99843.06
2022-08-14T05:08:31.790Z,99832.09
2022-08-14T05:09:15.769Z,99847.31
2022-08-14T05:10:12.897Z,99845.19
2022-08-14T05:10:54.916Z,99831.66
2022-08-14T05:11:44.378Z,99842.22
2022-08-14T05:13:11.196Z,99841.38
2022-08-14T05:13:29.886Z,99827.63
2022-08-14T05:14:34.643Z,99830.16
2022-08-14T05:15:14.717Z,99837.38
2022-08-14T05:15:49.767Z,99824.03
2022-08-14T05:16:41.688Z,99835.66
2022-08-14T05:17:17.850Z,99828.06
2022-08-14T05:18:37.198Z,99818.16
2022-08-14T05:19:25.112Z,99832.28
2022-08-14T05:21:04.879Z,99813.28
2022-08-14T05:21:56.731Z,99829.97
2022-08-14T05:22:54.278Z,99829.75
2022-08-14T05:23:53.760Z,99831.88
2022-08-14T05:24:36.700Z,99822.81
2022-08-14T05:25:19.273Z,99829.59
2022-08-14T05:26:19.675Z,99826.63
2022-08-14T05:27:03.184Z,99829.34
2022-08-14T05:27:43.688Z,99823.25
2022-08-14T05:28:29.765Z,99831.03
2022-08-14T05:29:11.978Z,99820.06
2022-08-14T05:29:55.466Z,99823.44
2022-08-14T05:30:30.756Z,99823.25
2022-08-14T05:31:21.091Z,99820.91
2022-08-14T05:31:58.628Z,99813.94
2022-08-14T05:32:45.709Z,99829.53
2022-08-14T05:33:24.310Z,99821.53
2022-08-14T05:34:12.675Z,99825.78
2022-08-14T05:34:46.763Z,99810.13
2022-08-14T05:35:27.722Z,99827.06
2022-08-14T05:36:16.754Z,99813.94
2022-08-14T05:36:58.873Z,99817.75
2022-08-14T05:37:46.120Z,99821.56
2022-08-14T05:38:31.341Z,99820.91
2022-08-14T05:39:12.817Z,99807.19
2022-08-14T05:39:53.802Z,99818.59
2022-08-14T05:40:41.725Z,99823.44
2022-08-14T05:41:52.612Z,99818.16
2022-08-14T05:42:52.799Z,99807.63
2022-08-14T05:43:47.668Z,99820.28
2022-08-14T05:44:41.670Z,99808.25
2022-08-14T05:45:41.698Z,99816.03
2022-08-14T05:46:35.678Z,99815.63
2022-08-14T05:47:39.203Z,99809.72
2022-08-14T05:48:42.960Z,99797.25
2022-08-14T05:49:38.238Z,99816.91
2022-08-14T05:50:32.673Z,99798.31
2022-08-14T05:51:13.679Z,99801.47
2022-08-14T05:51:53.795Z,99813.09
2022-08-14T05:52:39.187Z,99815.19
2022-08-14T05:53:19.728Z,99813.94
2022-08-14T05:54:13.599Z,99805.47
2022-08-14T05:55:03.840Z,99800.84
2022-08-14T05:55:44.952Z,99806.53
2022-08-14T05:56:32.728Z,99811.41
2022-08-14T05:57:30.649Z,99797.03
2022-08-14T05:58:40.838Z,99804.84
2022-08-14T05:59:39.260Z,99799.34
2022-08-14T06:00:44.668Z,99790.69
2022-08-14T06:01:38.757Z,99809.50
2022-08-14T06:02:32.655Z,99800.84
2022-08-14T06:03:31.659Z,99809.72
2022-08-14T06:04:25.651Z,99802.72
2022-08-14T06:05:23.344Z,99812.69
2022-08-14T06:06:17.665Z,99817.31
2022-08-14T06:06:57.695Z,99804.66
2022-08-14T06:07:37.733Z,99800.84
2022-08-14T06:08:36.814Z,99799.34
2022-08-14T06:09:21.729Z,99802.75
2022-08-14T06:10:04.080Z,99813.53
2022-08-14T06:10:45.008Z,99800.41
2022-08-14T06:11:30.502Z,99800.25
2022-08-14T06:12:12.688Z,99803.38
2022-08-14T06:13:06.797Z,99813.53
2022-08-14T06:13:55.652Z,99808.63
2022-08-14T06:14:31.209Z,99809.72
2022-08-14T06:15:18.650Z,99808.69
2022-08-14T06:15:56.692Z,99807.41
2022-08-14T06:16:45.645Z,99808.00
2022-08-14T06:17:28.687Z,99804.44
2022-08-14T06:18:32.637Z,99808.03
2022-08-14T06:19:26.652Z,99816.47
2022-08-14T06:20:22.089Z,99807.63
2022-08-14T06:21:18.638Z,99796.81
2022-08-14T06:22:12.642Z,99799.19
2022-08-14T06:22:53.697Z,99807.63
2022-08-14T06:23:33.696Z,99809.31
2022-08-14T06:24:18.667Z,99808.44
2022-08-14T06:24:59.710Z,99801.69
2022-08-14T06:25:41.660Z,99799.16
2022-08-14T06:26:22.771Z,99802.72
2022-08-14T06:27:11.675Z,99804.41
2022-08-14T06:28:03.865Z,99808.00
2022-08-14T06:28:57.655Z,99794.88
2022-08-14T06:29:52.643Z,99802.47
2022-08-14T06:30:48.644Z,99794.25
2022-08-14T06:31:42.646Z,99793.00
2022-08-14T06:32:39.311Z,99803.13
2022-08-14T06:33:30.142Z,99809.69
2022-08-14T06:35:10.795Z,99785.38
2022-08-14T06:35:26.620Z,99796.16
2022-08-14T06:36:06.712Z,99805.84
2022-08-14T06:36:52.624Z,99794.84
2022-08-14T06:37:35.162Z,99812.81
2022-08-14T06:38:23.646Z,99805.63
2022-08-14T06:39:10.037Z,99803.72
2022-08-14T06:39:44.726Z,99804.13
2022-08-14T06:40:34.700Z,99798.19
2022-08-14T06:41:20.640Z,99801.59
2022-08-14T06:42:07.655Z,99801.81
2022-08-14T06:43:03.967Z,99794.81
2022-08-14T06:43:45.372Z,99801.81
2022-08-14T06:44:30.268Z,99798.22
2022-08-14T06:45:12.660Z,99788.91
2022-08-14T06:45:57.156Z,99795.28
2022-08-14T06:46:37.855Z,99794.81
2022-08-14T06:47:18.705Z,99790.41
2022-08-14T06:48:06.268Z,99788.03
2022-08-14T06:49:02.683Z,99793.97
2022-08-14T06:49:58.013Z,99791.03
2022-08-14T06:50:52.600Z,99793.97
2022-08-14T06:51:47.633Z,99792.66
2022-08-14T06:52:50.378Z,99780.47
2022-08-14T06:53:45.652Z,99785.56
2022-08-14T06:54:31.318Z,99790.19
2022-08-14T06:55:13.793Z,99796.50
2022-08-14T06:55:57.968Z,99794.59
2022-08-14T06:56:39.705Z,99788.84
2022-08-14T06:57:25.593Z,99791.84
2022-08-14T06:58:05.862Z,99787.59
2022-08-14T06:58:53.621Z,99788.44
2022-08-14T06:59:42.637Z,99785.91
2022-08-14T07:00:40.613Z,99791.00
2022-08-14T07:01:58.609Z,99797.53
2022-08-14T07:03:12.235Z,99787.19
2022-08-14T07:04:24.661Z,99786.31
2022-08-14T07:05:23.658Z,99792.59
2022-08-14T07:06:03.785Z,99793.06
2022-08-14T07:06:51.594Z,99793.06
2022-08-14T07:07:47.257Z,99775.91
2022-08-14T07:08:34.615Z,99774.66
2022-08-14T07:09:23.025Z,99779.50
2022-08-14T07:10:03.594Z,99780.94
2022-08-14T07:10:44.612Z,99768.06
2022-08-14T07:11:22.757Z,99785.38
2022-08-14T07:12:55.110Z,99784.53
2022-08-14T07:13:04.826Z,99785.38
2022-08-14T07:13:51.626Z,99780.25
2022-08-14T07:14:25.789Z,99777.50
2022-08-14T07:15:14.655Z,99785.16
2022-08-14T07:15:56.639Z,99773.53
2022-08-14T07:16:52.727Z,99783.19
2022-08-14T07:17:46.689Z,99765.50
2022-08-14T07:18:50.934Z,99780.44
2022-08-14T07:19:44.608Z,99784.88
2022-08-14T07:20:38.600Z,99781.25
2022-08-14T07:21:19.620Z,99783.56
2022-08-14T07:21:59.741Z,99785.53
2022-08-14T07:22:56.223Z,99786.56
2022-08-14T07:23:40.262Z,99785.25
2022-08-14T07:24:30.993Z,99784.47
2022-08-14T07:25:12.686Z,99781.06
2022-08-14T07:25:53.606Z,99785.03
2022-08-14T07:26:34.621Z,99778.09
2022-08-14T07:27:12.781Z,99787.13
2022-08-14T07:28:00.600Z,99791.56
2022-08-14T07:28:42.994Z,99791.75
2022-08-14T07:29:30.603Z,99788.38
2022-08-14T07:30:04.636Z,99785.81
2022-08-14T07:30:57.676Z,99785.38
2022-08-14T07:31:46.659Z,99785.13
2022-08-14T07:32:40.705Z,99779.47
2022-08-14T07:33:34.606Z,99790.66
2022-08-14T07:34:36.251Z,99788.09
2022-08-14T07:35:42.861Z,99780.25
2022-08-14T07:36:37.670Z,99772.47
2022-08-14T07:37:34.688Z,99788.28
2022-08-14T07:38:16.510Z,99771.75
2022-08-14T07:38:57.604Z,99784.91
2022-08-14T07:39:31.362Z,99771.31
2022-08-14T07:40:27.764Z,99773.63
2022-08-14T07:41:06.857Z,99776.59
2022-08-14T07:42:00.570Z,99778.75
2022-08-14T07:42:41.602Z,99767.31
2022-08-14T07:43:23.079Z,99771.56
2022-08-14T07:44:29.196Z,99766.25
2022-08-14T07:45:03.674Z,99775.28
2022-08-14T07:45:44.585Z,99774.44
2022-08-14T07:46:31.030Z,99772.31
2022-08-14T07:47:12.577Z,99762.00
2022-08-14T07:48:02.613Z,99782.88
2022-08-14T07:48:41.394Z,99768.50
2022-08-14T07:49:29.586Z,99777.09
2022-08-14T07:50:13.751Z,99774.69
2022-08-14T07:51:10.961Z,99775.06
2022-08-14T07:51:49.615Z,99779.31
2022-08-14T07:52:38.743Z,99769.97
2022-08-14T07:53:20.656Z,99773.31
2022-08-14T07:54:00.624Z,99774.16
2022-08-14T07:54:40.665Z,99774.56
2022-08-14T07:55:24.648Z,99774.56
2022-08-14T07:56:43.866Z,99777.50
2022-08-14T07:57:22.476Z,99769.22
2022-08-14T07:58:05.904Z,99761.38
2022-08-14T07:59:06.596Z,99759.53
2022-08-14T07:59:44.633Z,99765.16
2022-08-14T08:00:30.878Z,99765.56
2022-08-14T08:01:13.565Z,99765.56
2022-08-14T08:01:52.857Z,99742.44
2022-08-14T08:02:32.691Z,99757.75
2022-08-14T08:03:16.672Z,99757.31
2022-08-14T08:03:59.690Z,99755.81
2022-08-14T08:04:42.597Z,99752.13
2022-08-14T08:05:26.247Z,99737.72
2022-08-14T08:06:10.558Z,99747.38
2022-08-14T08:06:58.632Z,99753.75
2022-08-14T08:07:48.582Z,99749.53
2022-08-14T08:08:27.181Z,99752.47
2022-08-14T08:09:16.555Z,99758.09
2022-08-14T08:10:07.604Z,99757.66
2022-08-14T08:11:14.821Z,99757.81
2022-08-14T08:12:14.396Z,99760.72
2022-08-14T08:13:18.569Z,99751.81
2022-08-14T08:14:20.574Z,99759.41
2022-08-14T08:15:14.586Z,99758.94
2022-08-14T08:16:13.565Z,99759.31
2022-08-14T08:17:10.574Z,99755.63
2022-08-14T08:18:04.594Z,99749.50
2022-08-14T08:19:01.797Z,99751.19
2022-08-14T08:20:00.647Z,99753.34
2022-08-14T08:20:44.569Z,99747.34
2022-08-14T08:21:35.539Z,99760.84
2022-08-14T08:22:15.569Z,99741.47
2022-08-14T08:23:00.385Z,99755.31
2022-08-14T08:23:50.843Z,99753.16
2022-08-14T08:24:31.647Z,99750.63
2022-08-14T08:25:42.574Z,99760.97
2022-08-14T08:26:23.540Z,99758.81
2022-08-14T08:27:03.719Z,99755.16
2022-08-14T08:27:45.033Z,99752.25
2022-08-14T08:28:31.473Z,99754.06
2022-08-14T08:29:15.601Z,99740.75
2022-08-14T08:29:56.661Z,99750.38
2022-08-14T08:30:45.125Z,99748.25
2022-08-14T08:31:32.860Z,99745.72
2022-08-14T08:32:09.882Z,99758.34
2022-08-14T08:33:01.534Z,99756.53
2022-08-14T08:33:40.193Z,99757.41
2022-08-14T08:34:28.550Z,99754.66
2022-08-14T08:35:04.617Z,99756.31
2022-08-14T08:35:54.552Z,99746.69
2022-08-14T08:36:29.976Z,99746.09
2022-08-14T08:37:11.574Z,99749.00
2022-08-14T08:38:01.092Z,99744.69
2022-08-14T08:39:18.872Z,99755.84
2022-08-14T08:40:03.422Z,99749.22
2022-08-14T08:40:53.638Z,99733.59
2022-08-14T08:41:54.674Z,99749.59
2022-08-14T08:42:38.325Z,99748.59
2022-08-14T08:43:38.080Z,99732.88
2022-08-14T08:44:31.989Z,99755.72
2022-08-14T08:45:14.609Z,99742.25
2022-08-14T08:46:06.525Z,99747.59
2022-08-14T08:47:08.000Z,99746.03
2022-08-14T08:47:49.543Z,99737.72
2022-08-14T08:48:35.577Z,99737.13
2022-08-14T08:49:19.549Z,99750.00
2022-08-14T08:50:00.689Z,99750.94
2022-08-14T08:50:45.574Z,99752.53
2022-08-14T08:51:43.118Z,99738.84
2022-08-14T08:52:30.995Z,99732.00
2022-08-14T08:53:16.555Z,99738.50
2022-08-14T08:53:50.655Z,99732.09
2022-08-14T08:54:41.530Z,99737.31
2022-08-14T08:55:15.665Z,99738.72
2022-08-14T08:56:03.565Z,99732.47
2022-08-14T08:56:56.024Z,99746.44
2022-08-14T08:57:44.516Z,99742.00
2022-08-14T08:58:32.590Z,99732.47
2022-08-14T08:59:34.648Z,99739.13
2022-08-14T09:00:31.644Z,99742.25
2022-08-14T09:01:25.538Z,99737.56
2022-08-14T09:02:26.093Z,99741.69
2022-08-14T09:03:21.655Z,99741.47
2022-08-14T09:04:14.769Z,99739.75
2022-08-14T09:04:56.259Z,99747.00
2022-08-14T09:05:39.512Z,99735.19
2022-08-14T09:07:01.147Z,99745.13
2022-08-14T09:07:20.511Z,99738.59
2022-08-14T09:08:01.631Z,99737.00
2022-08-14T09:09:00.961Z,99742.19
2022-08-14T09:09:59.228Z,99746.63
2022-08-14T09:10:33.467Z,99743.97
2022-08-14T09:11:22.549Z,99728.25
2022-08-14T09:11:58.224Z,99738.72
2022-08-14T09:12:46.895Z,99739.56
2022-08-14T09:13:30.498Z,99740.16
2022-08-14T09:14:18.556Z,99736.66
2022-08-14T09:14:53.281Z,99735.22
2022-08-14T09:15:36.591Z,99738.22
2022-08-14T09:16:18.625Z,99726.19
2022-08-14T09:16:54.393Z,99723.09
2022-08-14T09:17:36.578Z,99737.00
2022-08-14T09:18:10.650Z,99716.34
2022-08-14T09:18:44.320Z,99722.97
2022-08-14T09:19:27.501Z,99725.88
2022-08-14T09:20:02.337Z,99713.09
2022-08-14T09:20:47.564Z,99725.94
2022-08-14T09:21:31.375Z,99717.19
2022-08-14T09:22:35.906Z,99718.75
2022-08-14T09:23:16.814Z,99722.97
2022-08-14T09:24:28.923Z,99722.13
2022-08-14T09:25:01.616Z,99718.28
2022-08-14T09:26:00.169Z,99719.59
2022-08-14T09:26:43.751Z,99714.06
2022-08-14T09:27:22.684Z,99722.97
2022-08-14T09:27:57.303Z,99716.72
2022-08-14T09:28:37.521Z,99710.72
2022-08-14T09:29:12.660Z,99715.03
2022-08-14T09:29:54.346Z,99716.22
2022-08-14T09:30:35.532Z,99700.16
2022-08-14T09:31:18.013Z,99712.88
2022-08-14T09:32:26.979Z,99706.53
2022-08-14T09:33:12.708Z,99709.75
2022-08-14T09:34:26.892Z,99713.22
2022-08-14T09:35:27.809Z,99708.31
2022-08-14T09:37:15.721Z,99707.81
2022-08-14T09:38:45.784Z,99693.75
2022-08-14T09:40:20.570Z,99699.03
2022-08-14T09:42:20.658Z,99697.00
2022-08-14T09:43:33.654Z,99698.94
2022-08-14T09:44:29.797Z,99701.81
2022-08-14T09:45:30.297Z,99683.91
2022-08-14T09:46:21.479Z,99705.56
2022-08-14T09:47:06.507Z,99699.06
2022-08-14T09:47:52.705Z,99693.03
2022-08-14T09:48:35.528Z,99705.03
2022-08-14T09:49:17.696Z,99707.34
2022-08-14T09:50:00.492Z,99702.03
2022-08-14T09:51:58.478Z,99709.38
2022-08-14T09:52:41.108Z,99698.91
2022-08-14T09:54:18.204Z,99711.88
2022-08-14T09:54:55.646Z,99710.69
2022-08-14T09:55:45.007Z,99715.75